KAPC/APC METAR and TAF weather

Enter ICAO airport designator
Station Type Date Time Source
KAPC METAR 2019/11/18 10:54 UTC NOAA

KAPC 181054Z AUTO 02003KT 10SM CLR 09/07 A3001 RMK AO2 SLP153 T00940067 $


Station Type Date Time Source
KAPC Decoded METAR 2019/11/18 10:54 UTC NOAA

NAPA COUNTY AIRPORT, CA, United States (KAPC) 38-12N 122-17W 13M
Nov 18, 2019 - 05:54 AM EST / 2019.11.18 1054 UTC
Wind: from the NNE (020 degrees) at 3 MPH (3 KT):0
Visibility: 10 mile(s):0
Sky conditions: clear
Temperature: 48.9 F (9.4 C)
Dew Point: 44.1 F (6.7 C)
Relative Humidity: 83%
Pressure (altimeter): 30.01 in. Hg (1016 hPa)
ob: KAPC 181054Z AUTO 02003KT 10SM CLR 09/07 A3001 RMK AO2 SLP153 T00940067
cycle: 11

Station Type Date Time Source
KAPC TAF 2016/02/08 18:39 UTC NOAA

TAF KAPC 081738Z 0818/0918 08008KT P6SM SKC
FM081900 09012KT P6SM SKC
FM090000 07007KT P6SM SKC
FM090600 04004KT P6SM SKC

Example: see airport list